createdAt,value
2023-02-02T05:55:03.946Z,1.91
2023-02-02T05:57:30.844Z,1.94
2023-02-02T05:59:57.455Z,1.96
2023-02-02T06:02:24.237Z,1.98
2023-02-02T06:04:50.888Z,2.00
2023-02-02T06:07:17.597Z,2.02
2023-02-02T06:09:44.458Z,1.99
2023-02-02T06:12:11.690Z,1.99
2023-02-02T06:14:38.420Z,2.01
2023-02-02T06:17:06.197Z,2.00
2023-02-02T06:19:33.003Z,1.97
2023-02-02T06:21:59.893Z,1.97
2023-02-02T06:24:29.267Z,2.03
2023-02-02T06:26:56.655Z,2.09
2023-02-02T06:29:30.967Z,2.16
2023-02-02T06:31:58.987Z,2.22
2023-02-02T06:34:40.470Z,2.22
2023-02-02T06:37:11.103Z,2.26
2023-02-02T06:39:39.434Z,2.31
2023-02-02T06:42:20.811Z,2.38
2023-02-02T06:45:00.575Z,2.51
2023-02-02T06:47:28.194Z,2.58
2023-02-02T06:49:56.330Z,2.62
2023-02-02T06:52:26.119Z,2.67
2023-02-02T06:54:55.332Z,2.69
2023-02-02T06:57:23.792Z,2.72
2023-02-02T06:59:54.745Z,2.69
2023-02-02T07:02:24.306Z,2.68
2023-02-02T07:04:51.935Z,2.72
2023-02-02T07:07:18.815Z,2.76
2023-02-02T07:09:45.561Z,2.78
2023-02-02T07:12:12.658Z,2.80
2023-02-02T07:16:36.088Z,2.82
2023-02-02T07:19:05.515Z,2.79
2023-02-02T07:21:36.496Z,2.83
2023-02-02T07:24:06.824Z,2.88
2023-02-02T07:26:36.133Z,2.93
2023-02-02T07:29:05.060Z,2.98
2023-02-02T07:31:38.607Z,3.06
2023-02-02T07:34:07.212Z,3.10
2023-02-02T07:36:35.609Z,3.14
2023-02-02T07:39:05.692Z,3.17
2023-02-02T07:41:36.818Z,3.21
2023-02-02T07:44:07.426Z,3.25
2023-02-02T07:46:35.955Z,3.30
2023-02-02T07:49:07.347Z,3.35
2023-02-02T07:51:40.911Z,3.41
2023-02-02T07:54:10.862Z,3.47
2023-02-02T07:56:40.051Z,3.52
2023-02-02T07:59:10.968Z,3.56
2023-02-02T08:01:39.892Z,3.62
2023-02-02T08:04:08.636Z,3.70
2023-02-02T08:06:42.264Z,3.79
2023-02-02T08:09:16.755Z,3.91
2023-02-02T08:11:52.751Z,4.04
2023-02-02T08:14:24.161Z,4.12
2023-02-02T08:16:52.687Z,4.18
2023-02-02T08:19:23.072Z,4.17
2023-02-02T08:21:53.523Z,4.07
2023-02-02T08:24:22.914Z,4.12
2023-02-02T08:26:54.909Z,4.26
2023-02-02T08:29:24.887Z,4.40
2023-02-02T08:31:55.901Z,4.45
2023-02-02T08:34:37.798Z,4.47
2023-02-02T08:37:12.736Z,4.48
2023-02-02T08:39:42.808Z,4.49
2023-02-02T08:42:11.319Z,4.53
2023-02-02T08:46:07.791Z,4.59
2023-02-02T08:47:39.086Z,4.68
2023-02-02T08:50:19.840Z,4.74
2023-02-02T08:52:55.650Z,4.77
2023-02-02T08:55:32.220Z,4.78
2023-02-02T08:58:11.443Z,4.76
2023-02-02T09:00:41.432Z,4.68
2023-02-02T09:03:12.128Z,4.64
2023-02-02T09:06:12.028Z,4.61
2023-02-02T13:34:17.456Z,3.61
2023-02-02T13:36:57.866Z,3.57
2023-02-02T13:40:01.538Z,3.59
2023-02-02T13:42:45.970Z,3.60
2023-02-02T13:45:34.466Z,3.60
2023-02-02T13:48:32.483Z,3.58
2023-02-02T13:51:39.205Z,3.51
2023-02-02T13:54:24.775Z,3.54
2023-02-02T13:57:29.618Z,3.52
2023-02-02T14:00:04.273Z,3.48
2023-02-02T14:02:44.038Z,3.48
2023-02-02T14:05:22.486Z,3.51
2023-02-02T14:08:06.532Z,3.55
2023-02-02T14:10:39.682Z,3.56
2023-02-02T14:13:40.550Z,3.59
2023-02-02T14:16:18.706Z,3.59
2023-02-02T14:18:49.932Z,3.55
2023-02-02T14:21:35.170Z,3.53
2023-02-02T14:27:13.628Z,3.53
2023-02-02T14:29:46.187Z,3.51
2023-02-02T14:32:29.087Z,3.47
2023-02-02T14:35:00.557Z,3.45
2023-02-02T14:37:40.643Z,3.43
2023-02-02T14:40:10.357Z,3.42
2023-02-02T14:43:24.297Z,3.39
2023-02-02T14:46:14.292Z,3.39
2023-02-02T14:48:48.088Z,3.37
2023-02-02T14:51:24.755Z,3.33
2023-02-02T14:53:53.855Z,3.28
2023-02-02T14:56:55.454Z,3.27
2023-02-02T14:59:37.098Z,3.29
2023-02-02T15:02:25.347Z,3.23
2023-02-02T15:04:53.571Z,3.16
2023-02-02T15:07:24.566Z,3.08
2023-02-02T15:09:57.550Z,3.00
2023-02-02T15:12:29.260Z,2.94
2023-02-02T15:15:36.510Z,2.86
2023-02-02T15:18:15.354Z,2.79
2023-02-02T15:20:49.021Z,2.72
2023-02-02T15:23:34.787Z,2.70
2023-02-02T15:26:16.580Z,2.68
2023-02-02T15:29:07.548Z,2.63
2023-02-02T15:31:51.400Z,2.62
2023-02-02T15:34:40.311Z,2.56
2023-02-02T15:37:16.108Z,2.48
2023-02-02T15:39:45.530Z,2.45
2023-02-02T15:42:52.421Z,2.43
2023-02-02T15:45:49.568Z,2.37
2023-02-02T15:48:24.856Z,2.29
2023-02-02T15:50:56.691Z,2.23
2023-02-02T15:53:34.516Z,2.25
2023-02-02T15:56:06.737Z,2.26
2023-02-02T15:58:33.914Z,2.31
2023-02-02T16:01:04.999Z,2.34
2023-02-02T16:03:38.109Z,2.35
2023-02-02T16:06:07.727Z,2.35
2023-02-02T16:08:35.990Z,2.32
2023-02-02T16:11:03.685Z,2.30
2023-02-02T16:13:31.433Z,2.28
2023-02-02T16:16:03.262Z,2.22
2023-02-02T16:18:34.865Z,2.16
2023-02-02T16:21:06.304Z,2.15
2023-02-02T16:23:36.304Z,2.10
2023-02-02T16:26:06.064Z,2.02
2023-02-02T16:28:32.954Z,2.01
2023-02-02T16:31:02.353Z,2.01
2023-02-02T16:33:38.723Z,2.01
2023-02-02T16:36:26.561Z,2.03
2023-02-02T16:38:57.107Z,2.06
2023-02-02T16:41:32.991Z,2.02
2023-02-02T16:44:32.465Z,1.97
2023-02-02T16:47:01.157Z,1.99
2023-02-02T16:49:29.588Z,2.01
2023-02-02T16:52:18.281Z,2.01
2023-02-02T16:54:53.225Z,1.99
2023-02-02T16:57:26.196Z,1.96
2023-02-02T16:59:54.582Z,1.90
2023-02-02T17:02:39.910Z,1.87
2023-02-02T17:05:15.370Z,1.90
2023-02-02T17:07:46.431Z,1.91
2023-02-02T17:10:17.553Z,1.91
2023-02-02T17:12:45.301Z,1.91
2023-02-02T17:15:17.936Z,1.96
2023-02-02T17:17:47.728Z,2.04
2023-02-02T17:20:17.823Z,2.10
2023-02-02T17:22:55.974Z,2.16
2023-02-02T17:25:27.976Z,2.20
2023-02-02T17:27:56.036Z,2.18
2023-02-02T17:30:23.879Z,2.18
2023-02-02T17:32:50.885Z,2.20
2023-02-02T17:35:23.294Z,2.25
2023-02-02T17:37:52.125Z,2.29
2023-02-02T17:40:20.426Z,2.32
2023-02-02T17:42:48.937Z,2.36
2023-02-02T17:45:24.521Z,2.39
2023-02-02T17:47:54.856Z,2.41
2023-02-02T17:50:21.906Z,2.42
2023-02-02T17:52:49.227Z,2.45
2023-02-02T17:55:29.873Z,2.48
2023-02-02T17:57:56.712Z,2.49
2023-02-02T18:00:24.723Z,2.48
2023-02-02T18:02:55.263Z,2.49
2023-02-02T18:05:23.640Z,2.47
2023-02-02T18:07:51.028Z,2.44
2023-02-02T18:10:24.221Z,2.40
2023-02-02T18:12:51.841Z,2.38
2023-02-02T18:15:18.897Z,2.40
2023-02-02T18:17:45.834Z,2.40
